sensor_id;sensor_type;location;lat;lon;timestamp;temperature;humidity
7317;DHT22;3699;51.462;6.696;2024-02-21T00:01:31;10.10;99.90
7317;DHT22;3699;51.462;6.696;2024-02-21T00:03:58;10.20;99.90
7317;DHT22;3699;51.462;6.696;2024-02-21T00:06:26;10.20;99.90
7317;DHT22;3699;51.462;6.696;2024-02-21T00:08:53;10.10;99.90
7317;DHT22;3699;51.462;6.696;2024-02-21T00:11:19;10.20;99.90
7317;DHT22;3699;51.462;6.696;2024-02-21T00:13:46;10.00;99.90
7317;DHT22;3699;51.462;6.696;2024-02-21T00:16:13;10.20;99.90
7317;DHT22;3699;51.462;6.696;2024-02-21T00:18:41;10.00;99.90
7317;DHT22;3699;51.462;6.696;2024-02-21T00:21:08;10.30;99.90
7317;DHT22;3699;51.462;6.696;2024-02-21T00:23:36;10.10;99.90
7317;DHT22;3699;51.462;6.696;2024-02-21T00:26:03;10.10;99.90
7317;DHT22;3699;51.462;6.696;2024-02-21T00:28:31;10.10;99.90
7317;DHT22;3699;51.462;6.696;2024-02-21T00:30:57;10.10;99.90
7317;DHT22;3699;51.462;6.696;2024-02-21T00:35:51;10.10;99.90
7317;DHT22;3699;51.462;6.696;2024-02-21T00:38:18;10.10;99.90
7317;DHT22;3699;51.462;6.696;2024-02-21T00:40:46;10.10;99.90
7317;DHT22;3699;51.462;6.696;2024-02-21T00:43:13;10.10;99.90
7317;DHT22;3699;51.462;6.696;2024-02-21T00:45:40;10.10;99.90
7317;DHT22;3699;51.462;6.696;2024-02-21T00:48:07;10.10;99.90
7317;DHT22;3699;51.462;6.696;2024-02-21T00:50:34;10.10;99.90
7317;DHT22;3699;51.462;6.696;2024-02-21T00:53:03;10.10;99.90
7317;DHT22;3699;51.462;6.696;2024-02-21T00:55:29;10.20;99.90
7317;DHT22;3699;51.462;6.696;2024-02-21T00:57:57;10.10;99.90
7317;DHT22;3699;51.462;6.696;2024-02-21T01:00:24;10.10;99.90
7317;DHT22;3699;51.462;6.696;2024-02-21T01:02:51;10.10;99.90
7317;DHT22;3699;51.462;6.696;2024-02-21T01:05:18;10.10;99.90
7317;DHT22;3699;51.462;6.696;2024-02-21T01:07:45;7.40;99.90
7317;DHT22;3699;51.462;6.696;2024-02-21T01:10:12;10.10;99.90
7317;DHT22;3699;51.462;6.696;2024-02-21T01:12:39;10.10;99.90
7317;DHT22;3699;51.462;6.696;2024-02-21T01:15:07;10.10;99.90
7317;DHT22;3699;51.462;6.696;2024-02-21T01:17:34;10.10;99.90
7317;DHT22;3699;51.462;6.696;2024-02-21T01:20:02;10.10;99.90
7317;DHT22;3699;51.462;6.696;2024-02-21T01:22:30;10.10;99.90
7317;DHT22;3699;51.462;6.696;2024-02-21T01:24:57;10.00;99.90
7317;DHT22;3699;51.462;6.696;2024-02-21T01:27:24;10.10;99.90
7317;DHT22;3699;51.462;6.696;2024-02-21T01:29:51;10.10;99.90
7317;DHT22;3699;51.462;6.696;2024-02-21T01:32:19;10.10;99.90
7317;DHT22;3699;51.462;6.696;2024-02-21T01:34:45;10.10;99.90
7317;DHT22;3699;51.462;6.696;2024-02-21T01:37:12;10.00;99.90
7317;DHT22;3699;51.462;6.696;2024-02-21T01:39:39;10.00;99.90
7317;DHT22;3699;51.462;6.696;2024-02-21T01:42:05;10.00;99.90
7317;DHT22;3699;51.462;6.696;2024-02-21T01:44:32;10.00;99.90
7317;DHT22;3699;51.462;6.696;2024-02-21T01:46:59;10.00;99.90
7317;DHT22;3699;51.462;6.696;2024-02-21T01:49:27;9.90;99.90
7317;DHT22;3699;51.462;6.696;2024-02-21T01:54:22;10.00;99.90
7317;DHT22;3699;51.462;6.696;2024-02-21T01:56:49;10.00;99.90
7317;DHT22;3699;51.462;6.696;2024-02-21T01:59:16;10.00;99.90
7317;DHT22;3699;51.462;6.696;2024-02-21T02:01:43;10.00;99.90
7317;DHT22;3699;51.462;6.696;2024-02-21T02:06:39;9.90;99.90
7317;DHT22;3699;51.462;6.696;2024-02-21T02:09:06;9.90;99.90
7317;DHT22;3699;51.462;6.696;2024-02-21T02:11:33;9.90;99.90
7317;DHT22;3699;51.462;6.696;2024-02-21T02:14:00;9.80;99.90
7317;DHT22;3699;51.462;6.696;2024-02-21T02:16:26;9.90;99.90
7317;DHT22;3699;51.462;6.696;2024-02-21T02:18:53;9.80;99.90
7317;DHT22;3699;51.462;6.696;2024-02-21T02:21:24;9.90;99.90
7317;DHT22;3699;51.462;6.696;2024-02-21T02:23:54;9.90;99.90
7317;DHT22;3699;51.462;6.696;2024-02-21T02:26:21;9.80;99.90
7317;DHT22;3699;51.462;6.696;2024-02-21T02:28:47;9.80;99.90
7317;DHT22;3699;51.462;6.696;2024-02-21T02:31:14;9.80;99.90
7317;DHT22;3699;51.462;6.696;2024-02-21T02:33:42;9.80;99.90
7317;DHT22;3699;51.462;6.696;2024-02-21T02:36:09;9.80;99.90
7317;DHT22;3699;51.462;6.696;2024-02-21T02:38:36;9.70;99.90
7317;DHT22;3699;51.462;6.696;2024-02-21T02:41:04;9.70;99.90
7317;DHT22;3699;51.462;6.696;2024-02-21T02:43:31;9.70;99.90
7317;DHT22;3699;51.462;6.696;2024-02-21T02:48:25;9.70;99.90
7317;DHT22;3699;51.462;6.696;2024-02-21T02:50:52;9.60;99.90
7317;DHT22;3699;51.462;6.696;2024-02-21T02:53:18;9.60;99.90
7317;DHT22;3699;51.462;6.696;2024-02-21T02:55:45;9.60;99.90
7317;DHT22;3699;51.462;6.696;2024-02-21T02:58:13;9.60;99.90
7317;DHT22;3699;51.462;6.696;2024-02-21T03:00:40;9.60;99.90
7317;DHT22;3699;51.462;6.696;2024-02-21T03:03:08;9.60;99.90
7317;DHT22;3699;51.462;6.696;2024-02-21T03:12:59;9.60;99.90
7317;DHT22;3699;51.462;6.696;2024-02-21T03:15:27;9.60;99.90
7317;DHT22;3699;51.462;6.696;2024-02-21T03:17:54;9.60;99.90
7317;DHT22;3699;51.462;6.696;2024-02-21T03:22:48;9.70;99.90
7317;DHT22;3699;51.462;6.696;2024-02-21T03:27:42;9.70;99.90
7317;DHT22;3699;51.462;6.696;2024-02-21T03:30:09;9.70;99.90
7317;DHT22;3699;51.462;6.696;2024-02-21T03:32:37;9.70;99.90
7317;DHT22;3699;51.462;6.696;2024-02-21T03:37:32;9.80;99.90
7317;DHT22;3699;51.462;6.696;2024-02-21T03:39:58;9.70;99.90
7317;DHT22;3699;51.462;6.696;2024-02-21T03:42:25;9.70;99.90
7317;DHT22;3699;51.462;6.696;2024-02-21T03:44:55;9.80;99.90
7317;DHT22;3699;51.462;6.696;2024-02-21T03:47:21;9.70;99.90
7317;DHT22;3699;51.462;6.696;2024-02-21T03:49:49;9.80;99.90
7317;DHT22;3699;51.462;6.696;2024-02-21T03:54:43;9.80;99.90
7317;DHT22;3699;51.462;6.696;2024-02-21T03:57:10;9.80;99.90
7317;DHT22;3699;51.462;6.696;2024-02-21T03:59:36;9.80;99.90
7317;DHT22;3699;51.462;6.696;2024-02-21T04:02:04;9.80;99.90
7317;DHT22;3699;51.462;6.696;2024-02-21T04:04:34;9.80;99.90
7317;DHT22;3699;51.462;6.696;2024-02-21T04:07:02;9.80;99.90
7317;DHT22;3699;51.462;6.696;2024-02-21T04:09:32;9.80;99.90
7317;DHT22;3699;51.462;6.696;2024-02-21T04:11:59;9.80;99.90
7317;DHT22;3699;51.462;6.696;2024-02-21T04:14:26;9.80;99.90
7317;DHT22;3699;51.462;6.696;2024-02-21T04:21:47;9.80;99.90
7317;DHT22;3699;51.462;6.696;2024-02-21T04:24:15;9.80;99.90
7317;DHT22;3699;51.462;6.696;2024-02-21T04:26:41;9.80;99.90
7317;DHT22;3699;51.462;6.696;2024-02-21T04:29:09;9.80;99.90
7317;DHT22;3699;51.462;6.696;2024-02-21T04:31:36;9.80;99.90
7317;DHT22;3699;51.462;6.696;2024-02-21T04:34:02;9.80;99.90
7317;DHT22;3699;51.462;6.696;2024-02-21T04:38:56;9.80;99.90
7317;DHT22;3699;51.462;6.696;2024-02-21T04:41:24;9.80;99.90
7317;DHT22;3699;51.462;6.696;2024-02-21T04:43:51;9.80;99.90
7317;DHT22;3699;51.462;6.696;2024-02-21T04:46:18;9.80;99.90
7317;DHT22;3699;51.462;6.696;2024-02-21T04:48:45;9.80;99.90
7317;DHT22;3699;51.462;6.696;2024-02-21T04:51:12;9.80;99.90
7317;DHT22;3699;51.462;6.696;2024-02-21T04:53:39;9.80;99.90
7317;DHT22;3699;51.462;6.696;2024-02-21T04:56:06;9.80;99.90
7317;DHT22;3699;51.462;6.696;2024-02-21T04:58:37;9.90;99.90
7317;DHT22;3699;51.462;6.696;2024-02-21T05:01:07;9.80;99.90
7317;DHT22;3699;51.462;6.696;2024-02-21T05:03:34;9.80;99.90
7317;DHT22;3699;51.462;6.696;2024-02-21T05:08:28;10.00;99.90
7317;DHT22;3699;51.462;6.696;2024-02-21T05:10:54;9.80;99.90
7317;DHT22;3699;51.462;6.696;2024-02-21T05:13:21;9.90;99.90
7317;DHT22;3699;51.462;6.696;2024-02-21T05:15:49;9.90;99.90
7317;DHT22;3699;51.462;6.696;2024-02-21T05:18:16;10.00;99.90
7317;DHT22;3699;51.462;6.696;2024-02-21T05:20:43;9.80;99.90
7317;DHT22;3699;51.462;6.696;2024-02-21T05:23:10;9.80;99.90
7317;DHT22;3699;51.462;6.696;2024-02-21T05:25:36;9.90;99.90
7317;DHT22;3699;51.462;6.696;2024-02-21T05:28:04;9.90;99.90
7317;DHT22;3699;51.462;6.696;2024-02-21T05:30:34;10.00;99.90
7317;DHT22;3699;51.462;6.696;2024-02-21T05:33:05;9.80;99.90
7317;DHT22;3699;51.462;6.696;2024-02-21T05:35:33;9.80;99.90
7317;DHT22;3699;51.462;6.696;2024-02-21T05:38:00;9.80;99.90
7317;DHT22;3699;51.462;6.696;2024-02-21T05:40:29;10.00;99.90
7317;DHT22;3699;51.462;6.696;2024-02-21T05:42:56;9.90;99.90
7317;DHT22;3699;51.462;6.696;2024-02-21T05:45:23;9.90;99.90
7317;DHT22;3699;51.462;6.696;2024-02-21T05:47:50;9.90;99.90
7317;DHT22;3699;51.462;6.696;2024-02-21T05:50:18;9.90;99.90
7317;DHT22;3699;51.462;6.696;2024-02-21T05:52:46;9.80;99.90
7317;DHT22;3699;51.462;6.696;2024-02-21T05:55:13;9.80;99.90
7317;DHT22;3699;51.462;6.696;2024-02-21T05:57:40;9.80;99.90
7317;DHT22;3699;51.462;6.696;2024-02-21T06:00:07;9.80;99.90
7317;DHT22;3699;51.462;6.696;2024-02-21T06:02:34;9.80;99.90
7317;DHT22;3699;51.462;6.696;2024-02-21T06:09:57;9.30;99.90
7317;DHT22;3699;51.462;6.696;2024-02-21T06:12:23;9.80;99.90
7317;DHT22;3699;51.462;6.696;2024-02-21T06:14:50;9.80;99.90
7317;DHT22;3699;51.462;6.696;2024-02-21T06:17:17;9.80;99.90
7317;DHT22;3699;51.462;6.696;2024-02-21T06:19:44;9.80;99.90
7317;DHT22;3699;51.462;6.696;2024-02-21T06:22:11;9.80;99.90
7317;DHT22;3699;51.462;6.696;2024-02-21T06:24:39;9.80;99.90
7317;DHT22;3699;51.462;6.696;2024-02-21T06:27:06;9.80;99.90
7317;DHT22;3699;51.462;6.696;2024-02-21T06:29:33;9.60;99.90
7317;DHT22;3699;51.462;6.696;2024-02-21T06:32:02;9.80;99.90
7317;DHT22;3699;51.462;6.696;2024-02-21T06:34:28;9.80;99.90
7317;DHT22;3699;51.462;6.696;2024-02-21T06:36:55;9.80;99.90
7317;DHT22;3699;51.462;6.696;2024-02-21T06:39:22;9.80;99.90
7317;DHT22;3699;51.462;6.696;2024-02-21T06:41:51;9.80;99.90
7317;DHT22;3699;51.462;6.696;2024-02-21T06:44:19;9.80;99.90
7317;DHT22;3699;51.462;6.696;2024-02-21T06:46:46;9.80;99.90
7317;DHT22;3699;51.462;6.696;2024-02-21T06:51:41;9.80;99.90
7317;DHT22;3699;51.462;6.696;2024-02-21T06:56:36;9.80;99.90
7317;DHT22;3699;51.462;6.696;2024-02-21T06:59:04;9.80;99.90
7317;DHT22;3699;51.462;6.696;2024-02-21T07:01:31;9.80;99.90
7317;DHT22;3699;51.462;6.696;2024-02-21T07:06:25;9.90;99.90
7317;DHT22;3699;51.462;6.696;2024-02-21T07:08:52;9.90;99.90
7317;DHT22;3699;51.462;6.696;2024-02-21T07:11:19;9.90;99.90
7317;DHT22;3699;51.462;6.696;2024-02-21T07:13:46;10.00;99.90
7317;DHT22;3699;51.462;6.696;2024-02-21T07:16:14;9.90;99.90
7317;DHT22;3699;51.462;6.696;2024-02-21T07:18:40;9.90;99.90
7317;DHT22;3699;51.462;6.696;2024-02-21T07:21:07;9.90;99.90
7317;DHT22;3699;51.462;6.696;2024-02-21T07:23:34;9.90;99.90
7317;DHT22;3699;51.462;6.696;2024-02-21T07:26:00;10.00;99.90
7317;DHT22;3699;51.462;6.696;2024-02-21T07:30:54;9.90;99.90
7317;DHT22;3699;51.462;6.696;2024-02-21T07:35:49;10.00;99.90
7317;DHT22;3699;51.462;6.696;2024-02-21T07:38:16;10.00;99.90
7317;DHT22;3699;51.462;6.696;2024-02-21T07:40:44;10.00;99.90
7317;DHT22;3699;51.462;6.696;2024-02-21T07:43:11;10.10;99.90
7317;DHT22;3699;51.462;6.696;2024-02-21T07:45:38;10.10;99.90
7317;DHT22;3699;51.462;6.696;2024-02-21T07:50:33;10.10;99.90
7317;DHT22;3699;51.462;6.696;2024-02-21T07:53:00;10.20;99.90
7317;DHT22;3699;51.462;6.696;2024-02-21T08:00:22;10.20;99.90
7317;DHT22;3699;51.462;6.696;2024-02-21T08:02:49;10.20;99.90
7317;DHT22;3699;51.462;6.696;2024-02-21T08:05:17;10.20;99.90
7317;DHT22;3699;51.462;6.696;2024-02-21T08:07:45;10.20;99.90
7317;DHT22;3699;51.462;6.696;2024-02-21T08:10:12;10.30;99.90
7317;DHT22;3699;51.462;6.696;2024-02-21T08:12:38;10.30;99.90
7317;DHT22;3699;51.462;6.696;2024-02-21T08:15:06;10.30;99.90
7317;DHT22;3699;51.462;6.696;2024-02-21T08:17:33;10.30;99.90
7317;DHT22;3699;51.462;6.696;2024-02-21T08:20:00;10.30;99.90
7317;DHT22;3699;51.462;6.696;2024-02-21T08:22:27;10.40;99.90
7317;DHT22;3699;51.462;6.696;2024-02-21T08:24:56;10.40;99.90
7317;DHT22;3699;51.462;6.696;2024-02-21T08:27:22;10.40;99.90
7317;DHT22;3699;51.462;6.696;2024-02-21T08:29:49;10.50;99.90
7317;DHT22;3699;51.462;6.696;2024-02-21T08:32:16;10.50;99.90
7317;DHT22;3699;51.462;6.696;2024-02-21T08:37:10;10.60;99.90
7317;DHT22;3699;51.462;6.696;2024-02-21T08:39:37;10.70;99.90
7317;DHT22;3699;51.462;6.696;2024-02-21T08:42:05;10.70;99.90
7317;DHT22;3699;51.462;6.696;2024-02-21T08:44:32;10.70;99.90
7317;DHT22;3699;51.462;6.696;2024-02-21T08:56:51;10.80;99.90
7317;DHT22;3699;51.462;6.696;2024-02-21T08:59:19;10.90;99.90
7317;DHT22;3699;51.462;6.696;2024-02-21T09:04:13;10.80;99.90
7317;DHT22;3699;51.462;6.696;2024-02-21T09:09:08;10.80;99.90
7317;DHT22;3699;51.462;6.696;2024-02-21T09:11:35;10.90;99.90
7317;DHT22;3699;51.462;6.696;2024-02-21T09:18:59;10.90;99.90
7317;DHT22;3699;51.462;6.696;2024-02-21T09:21:26;10.90;99.90
7317;DHT22;3699;51.462;6.696;2024-02-21T09:23:53;10.90;99.90
7317;DHT22;3699;51.462;6.696;2024-02-21T09:38:39;10.90;99.90
7317;DHT22;3699;51.462;6.696;2024-02-21T09:41:14;10.90;99.90
7317;DHT22;3699;51.462;6.696;2024-02-21T09:46:15;10.90;99.90
7317;DHT22;3699;51.462;6.696;2024-02-21T09:48:55;10.90;99.90
7317;DHT22;3699;51.462;6.696;2024-02-21T09:51:28;10.90;99.90
7317;DHT22;3699;51.462;6.696;2024-02-21T09:53:56;10.90;99.90
7317;DHT22;3699;51.462;6.696;2024-02-21T10:06:15;10.90;99.90
7317;DHT22;3699;51.462;6.696;2024-02-21T10:08:41;11.00;99.90
7317;DHT22;3699;51.462;6.696;2024-02-21T10:11:08;11.00;99.90
7317;DHT22;3699;51.462;6.696;2024-02-21T10:16:04;11.00;99.90
7317;DHT22;3699;51.462;6.696;2024-02-21T10:18:32;11.00;99.90
7317;DHT22;3699;51.462;6.696;2024-02-21T10:21:04;11.00;99.90
7317;DHT22;3699;51.462;6.696;2024-02-21T10:23:44;11.00;99.90
7317;DHT22;3699;51.462;6.696;2024-02-21T10:28:38;11.00;99.90
7317;DHT22;3699;51.462;6.696;2024-02-21T10:41:06;11.00;99.90
7317;DHT22;3699;51.462;6.696;2024-02-21T10:43:39;11.00;99.90
7317;DHT22;3699;51.462;6.696;2024-02-21T10:48:42;11.10;99.90
7317;DHT22;3699;51.462;6.696;2024-02-21T10:51:15;11.20;99.90
7317;DHT22;3699;51.462;6.696;2024-02-21T10:53:45;11.20;99.90
7317;DHT22;3699;51.462;6.696;2024-02-21T10:56:22;11.20;99.90
7317;DHT22;3699;51.462;6.696;2024-02-21T10:58:51;11.20;99.90
7317;DHT22;3699;51.462;6.696;2024-02-21T11:01:19;10.80;99.90
7317;DHT22;3699;51.462;6.696;2024-02-21T11:03:47;11.40;99.90
7317;DHT22;3699;51.462;6.696;2024-02-21T11:06:17;11.40;99.90
7317;DHT22;3699;51.462;6.696;2024-02-21T11:08:44;11.40;99.90
7317;DHT22;3699;51.462;6.696;2024-02-21T11:11:13;11.40;99.90
7317;DHT22;3699;51.462;6.696;2024-02-21T11:16:20;11.50;99.90
7317;DHT22;3699;51.462;6.696;2024-02-21T11:26:17;11.60;99.90
7317;DHT22;3699;51.462;6.696;2024-02-21T11:28:56;11.70;99.90
7317;DHT22;3699;51.462;6.696;2024-02-21T11:33:53;11.90;99.90
7317;DHT22;3699;51.462;6.696;2024-02-21T11:38:53;11.90;99.90
7317;DHT22;3699;51.462;6.696;2024-02-21T11:51:10;12.10;99.90
7317;DHT22;3699;51.462;6.696;2024-02-21T11:56:06;11.60;99.90
7317;DHT22;3699;51.462;6.696;2024-02-21T12:10:53;12.30;99.90
7317;DHT22;3699;51.462;6.696;2024-02-21T12:20:48;12.40;99.90
7317;DHT22;3699;51.462;6.696;2024-02-21T12:45:26;12.60;92.60
7317;DHT22;3699;51.462;6.696;2024-02-21T15:10:42;12.80;86.50
7317;DHT22;3699;51.462;6.696;2024-02-21T15:18:03;12.70;92.80
7317;DHT22;3699;51.462;6.696;2024-02-21T15:22:59;12.60;92.70
7317;DHT22;3699;51.462;6.696;2024-02-21T15:25:26;12.50;92.60
7317;DHT22;3699;51.462;6.696;2024-02-21T15:27:53;12.50;92.20
7317;DHT22;3699;51.462;6.696;2024-02-21T15:30:20;12.40;93.90
7317;DHT22;3699;51.462;6.696;2024-02-21T15:37:42;12.40;96.60
7317;DHT22;3699;51.462;6.696;2024-02-21T15:45:04;12.50;98.10
7317;DHT22;3699;51.462;6.696;2024-02-21T15:49:59;12.40;92.80
7317;DHT22;3699;51.462;6.696;2024-02-21T15:52:26;12.40;92.20
7317;DHT22;3699;51.462;6.696;2024-02-21T15:57:22;12.30;93.30
7317;DHT22;3699;51.462;6.696;2024-02-21T15:59:48;12.40;95.10
7317;DHT22;3699;51.462;6.696;2024-02-21T16:02:15;12.30;96.80
7317;DHT22;3699;51.462;6.696;2024-02-21T16:04:42;12.30;98.80
7317;DHT22;3699;51.462;6.696;2024-02-21T16:09:36;12.30;99.90
7317;DHT22;3699;51.462;6.696;2024-02-21T16:12:05;12.20;99.90
7317;DHT22;3699;51.462;6.696;2024-02-21T16:17:03;12.20;99.90
7317;DHT22;3699;51.462;6.696;2024-02-21T16:21:58;12.30;99.90
7317;DHT22;3699;51.462;6.696;2024-02-21T16:24:25;12.10;99.90
7317;DHT22;3699;51.462;6.696;2024-02-21T16:26:52;12.10;99.90
7317;DHT22;3699;51.462;6.696;2024-02-21T16:29:20;12.00;99.90
7317;DHT22;3699;51.462;6.696;2024-02-21T16:34:16;11.70;99.90
7317;DHT22;3699;51.462;6.696;2024-02-21T16:39:10;11.60;99.90
7317;DHT22;3699;51.462;6.696;2024-02-21T16:41:39;11.60;99.90
7317;DHT22;3699;51.462;6.696;2024-02-21T16:44:06;11.50;99.90
7317;DHT22;3699;51.462;6.696;2024-02-21T16:46:34;11.40;99.90
7317;DHT22;3699;51.462;6.696;2024-02-21T16:49:01;11.30;99.90
7317;DHT22;3699;51.462;6.696;2024-02-21T16:51:27;11.20;99.90
7317;DHT22;3699;51.462;6.696;2024-02-21T16:53:54;11.20;99.90
7317;DHT22;3699;51.462;6.696;2024-02-21T16:56:21;11.10;99.90
7317;DHT22;3699;51.462;6.696;2024-02-21T16:58:48;11.00;99.90
7317;DHT22;3699;51.462;6.696;2024-02-21T17:01:14;11.00;99.90
7317;DHT22;3699;51.462;6.696;2024-02-21T17:03:43;10.90;99.90
7317;DHT22;3699;51.462;6.696;2024-02-21T17:06:11;10.80;99.90
7317;DHT22;3699;51.462;6.696;2024-02-21T17:08:38;10.80;99.90
7317;DHT22;3699;51.462;6.696;2024-02-21T17:11:06;10.70;99.90
7317;DHT22;3699;51.462;6.696;2024-02-21T17:13:33;10.80;99.90
7317;DHT22;3699;51.462;6.696;2024-02-21T17:16:00;10.60;99.90
7317;DHT22;3699;51.462;6.696;2024-02-21T17:18:27;10.50;99.90
7317;DHT22;3699;51.462;6.696;2024-02-21T17:20:55;10.50;99.90
7317;DHT22;3699;51.462;6.696;2024-02-21T17:23:22;10.40;99.90
7317;DHT22;3699;51.462;6.696;2024-02-21T17:25:49;10.40;99.90
7317;DHT22;3699;51.462;6.696;2024-02-21T17:30:43;10.30;99.90
7317;DHT22;3699;51.462;6.696;2024-02-21T17:33:10;10.30;99.90
7317;DHT22;3699;51.462;6.696;2024-02-21T17:38:06;10.20;99.90
7317;DHT22;3699;51.462;6.696;2024-02-21T17:40:33;10.10;99.90
7317;DHT22;3699;51.462;6.696;2024-02-21T17:42:59;10.10;99.90
7317;DHT22;3699;51.462;6.696;2024-02-21T17:45:26;10.10;99.90
7317;DHT22;3699;51.462;6.696;2024-02-21T17:47:53;10.00;99.90
7317;DHT22;3699;51.462;6.696;2024-02-21T17:50:20;10.00;99.90
7317;DHT22;3699;51.462;6.696;2024-02-21T17:55:15;9.90;99.90
7317;DHT22;3699;51.462;6.696;2024-02-21T17:57:42;9.90;99.90
7317;DHT22;3699;51.462;6.696;2024-02-21T18:00:11;9.90;99.90
7317;DHT22;3699;51.462;6.696;2024-02-21T18:02:38;9.80;99.90
7317;DHT22;3699;51.462;6.696;2024-02-21T18:05:05;9.80;99.90
7317;DHT22;3699;51.462;6.696;2024-02-21T18:07:32;9.70;99.90
7317;DHT22;3699;51.462;6.696;2024-02-21T18:09:59;9.70;99.90
7317;DHT22;3699;51.462;6.696;2024-02-21T18:12:27;9.70;99.90
7317;DHT22;3699;51.462;6.696;2024-02-21T18:14:53;9.60;99.90
7317;DHT22;3699;51.462;6.696;2024-02-21T18:17:20;9.60;99.90
7317;DHT22;3699;51.462;6.696;2024-02-21T18:19:48;9.60;99.90
7317;DHT22;3699;51.462;6.696;2024-02-21T18:22:15;9.60;99.90
7317;DHT22;3699;51.462;6.696;2024-02-21T18:24:42;9.60;99.90
7317;DHT22;3699;51.462;6.696;2024-02-21T18:27:09;9.40;99.90
7317;DHT22;3699;51.462;6.696;2024-02-21T18:32:05;9.40;99.90
7317;DHT22;3699;51.462;6.696;2024-02-21T18:34:33;9.40;99.90
7317;DHT22;3699;51.462;6.696;2024-02-21T18:37:00;9.40;99.90
7317;DHT22;3699;51.462;6.696;2024-02-21T18:39:27;9.40;99.90
7317;DHT22;3699;51.462;6.696;2024-02-21T18:41:54;9.40;99.90
7317;DHT22;3699;51.462;6.696;2024-02-21T18:44:22;9.30;99.90
7317;DHT22;3699;51.462;6.696;2024-02-21T18:49:17;9.30;99.90
7317;DHT22;3699;51.462;6.696;2024-02-21T18:51:44;9.20;99.90
7317;DHT22;3699;51.462;6.696;2024-02-21T18:54:11;9.20;99.90
7317;DHT22;3699;51.462;6.696;2024-02-21T18:56:37;9.20;99.90
7317;DHT22;3699;51.462;6.696;2024-02-21T18:59:06;9.20;99.90
7317;DHT22;3699;51.462;6.696;2024-02-21T19:01:32;9.20;99.90
7317;DHT22;3699;51.462;6.696;2024-02-21T19:04:00;9.20;99.90
7317;DHT22;3699;51.462;6.696;2024-02-21T19:06:27;9.20;99.90
7317;DHT22;3699;51.462;6.696;2024-02-21T19:08:54;7.00;99.90
7317;DHT22;3699;51.462;6.696;2024-02-21T19:11:22;9.10;99.90
7317;DHT22;3699;51.462;6.696;2024-02-21T19:13:48;9.20;99.90
7317;DHT22;3699;51.462;6.696;2024-02-21T19:16:15;9.20;99.90
7317;DHT22;3699;51.462;6.696;2024-02-21T19:18:42;9.20;99.90
7317;DHT22;3699;51.462;6.696;2024-02-21T19:21:10;9.30;99.90
7317;DHT22;3699;51.462;6.696;2024-02-21T19:23:37;9.30;99.90
7317;DHT22;3699;51.462;6.696;2024-02-21T19:26:04;9.30;99.90
7317;DHT22;3699;51.462;6.696;2024-02-21T19:28:34;9.30;99.90
7317;DHT22;3699;51.462;6.696;2024-02-21T19:31:01;9.30;99.90
7317;DHT22;3699;51.462;6.696;2024-02-21T19:33:29;9.30;99.90
7317;DHT22;3699;51.462;6.696;2024-02-21T19:35:55;9.30;99.90
7317;DHT22;3699;51.462;6.696;2024-02-21T19:38:23;9.30;99.90
7317;DHT22;3699;51.462;6.696;2024-02-21T19:40:51;9.40;99.90
7317;DHT22;3699;51.462;6.696;2024-02-21T19:43:17;9.30;99.90
7317;DHT22;3699;51.462;6.696;2024-02-21T19:45:44;9.40;99.90
7317;DHT22;3699;51.462;6.696;2024-02-21T19:48:12;9.70;99.90
7317;DHT22;3699;51.462;6.696;2024-02-21T19:50:40;9.30;99.90
7317;DHT22;3699;51.462;6.696;2024-02-21T19:53:07;9.40;99.90
7317;DHT22;3699;51.462;6.696;2024-02-21T19:55:35;9.30;99.90
7317;DHT22;3699;51.462;6.696;2024-02-21T19:58:02;9.30;99.90
7317;DHT22;3699;51.462;6.696;2024-02-21T20:00:28;9.30;99.90
7317;DHT22;3699;51.462;6.696;2024-02-21T20:02:55;9.30;99.90
7317;DHT22;3699;51.462;6.696;2024-02-21T20:05:22;9.30;99.90
7317;DHT22;3699;51.462;6.696;2024-02-21T20:07:50;9.30;99.90
7317;DHT22;3699;51.462;6.696;2024-02-21T20:10:17;9.30;99.90
7317;DHT22;3699;51.462;6.696;2024-02-21T20:12:46;9.20;99.90
7317;DHT22;3699;51.462;6.696;2024-02-21T20:15:13;9.20;99.90
7317;DHT22;3699;51.462;6.696;2024-02-21T20:17:40;9.40;99.90
7317;DHT22;3699;51.462;6.696;2024-02-21T20:20:11;9.20;99.90
7317;DHT22;3699;51.462;6.696;2024-02-21T20:22:38;9.30;99.90
7317;DHT22;3699;51.462;6.696;2024-02-21T20:25:06;9.30;99.90
7317;DHT22;3699;51.462;6.696;2024-02-21T20:27:32;9.30;99.90
7317;DHT22;3699;51.462;6.696;2024-02-21T20:30:01;9.30;99.90
7317;DHT22;3699;51.462;6.696;2024-02-21T20:32:28;9.30;99.90
7317;DHT22;3699;51.462;6.696;2024-02-21T20:34:55;9.30;99.90
7317;DHT22;3699;51.462;6.696;2024-02-21T20:37:21;9.20;99.90
7317;DHT22;3699;51.462;6.696;2024-02-21T20:39:48;9.30;99.90
7317;DHT22;3699;51.462;6.696;2024-02-21T20:42:15;9.30;99.90
7317;DHT22;3699;51.462;6.696;2024-02-21T20:44:43;9.30;99.90
7317;DHT22;3699;51.462;6.696;2024-02-21T20:47:11;9.30;99.90
7317;DHT22;3699;51.462;6.696;2024-02-21T20:49:38;9.30;99.90
7317;DHT22;3699;51.462;6.696;2024-02-21T20:52:05;9.30;99.90
7317;DHT22;3699;51.462;6.696;2024-02-21T20:56:59;9.30;99.90
7317;DHT22;3699;51.462;6.696;2024-02-21T20:59:26;9.30;99.90
7317;DHT22;3699;51.462;6.696;2024-02-21T21:01:53;9.40;99.90
7317;DHT22;3699;51.462;6.696;2024-02-21T21:04:21;9.30;99.90
7317;DHT22;3699;51.462;6.696;2024-02-21T21:06:48;9.50;99.90
7317;DHT22;3699;51.462;6.696;2024-02-21T21:09:15;9.40;99.90
7317;DHT22;3699;51.462;6.696;2024-02-21T21:11:44;9.40;99.90
7317;DHT22;3699;51.462;6.696;2024-02-21T21:14:12;9.40;99.90
7317;DHT22;3699;51.462;6.696;2024-02-21T21:16:39;9.40;99.90
7317;DHT22;3699;51.462;6.696;2024-02-21T21:19:06;9.40;99.90
7317;DHT22;3699;51.462;6.696;2024-02-21T21:21:35;9.30;99.90
7317;DHT22;3699;51.462;6.696;2024-02-21T21:24:02;9.30;99.90
7317;DHT22;3699;51.462;6.696;2024-02-21T21:26:29;9.30;99.90
7317;DHT22;3699;51.462;6.696;2024-02-21T21:28:56;9.30;99.90
7317;DHT22;3699;51.462;6.696;2024-02-21T21:31:24;9.30;99.90
7317;DHT22;3699;51.462;6.696;2024-02-21T21:36:18;9.30;99.90
7317;DHT22;3699;51.462;6.696;2024-02-21T21:38:47;9.30;99.90
7317;DHT22;3699;51.462;6.696;2024-02-21T21:43:41;9.30;99.90
7317;DHT22;3699;51.462;6.696;2024-02-21T21:46:11;9.30;99.90
7317;DHT22;3699;51.462;6.696;2024-02-21T21:48:39;9.30;99.90
7317;DHT22;3699;51.462;6.696;2024-02-21T21:51:05;9.30;99.90
7317;DHT22;3699;51.462;6.696;2024-02-21T21:53:32;9.30;99.90
7317;DHT22;3699;51.462;6.696;2024-02-21T21:56:01;9.30;99.90
7317;DHT22;3699;51.462;6.696;2024-02-21T21:58:30;9.30;99.90
7317;DHT22;3699;51.462;6.696;2024-02-21T22:00:56;9.30;99.90
7317;DHT22;3699;51.462;6.696;2024-02-21T22:03:23;9.30;99.90
7317;DHT22;3699;51.462;6.696;2024-02-21T22:08:17;9.30;99.90
7317;DHT22;3699;51.462;6.696;2024-02-21T22:13:14;9.40;99.90
7317;DHT22;3699;51.462;6.696;2024-02-21T22:15:41;9.30;99.90
7317;DHT22;3699;51.462;6.696;2024-02-21T22:18:08;9.30;99.90
7317;DHT22;3699;51.462;6.696;2024-02-21T22:20:35;9.40;99.90
7317;DHT22;3699;51.462;6.696;2024-02-21T22:23:02;9.40;99.90
7317;DHT22;3699;51.462;6.696;2024-02-21T22:25:29;9.40;99.90
7317;DHT22;3699;51.462;6.696;2024-02-21T22:27:56;9.40;99.90
7317;DHT22;3699;51.462;6.696;2024-02-21T22:30:24;9.40;99.90
7317;DHT22;3699;51.462;6.696;2024-02-21T22:32:51;9.40;99.90
7317;DHT22;3699;51.462;6.696;2024-02-21T22:35:18;9.50;99.90
7317;DHT22;3699;51.462;6.696;2024-02-21T22:37:45;9.50;99.90
7317;DHT22;3699;51.462;6.696;2024-02-21T22:40:12;9.50;99.90
7317;DHT22;3699;51.462;6.696;2024-02-21T22:42:40;9.40;99.90
7317;DHT22;3699;51.462;6.696;2024-02-21T22:45:07;9.40;99.90
7317;DHT22;3699;51.462;6.696;2024-02-21T22:47:35;9.50;99.90